Time;durP1;ratioP1;P1;durP2;ratioP2;P2;SDS_P1;SDS_P2;PMS_P1;PMS_P2;Temp;Humidity;BMP_temperature;BMP_pressure;BME280_temperature;BME280_humidity;BME280_pressure;Samples;Min_cycle;Max_cycle;Signal;HPM_P1;HPM_P2
2020/12/17 05:17:57;;;;;;;9.32;5.93;;;-0.20;99.90;;;;;;5828070;23;20109;-73
2020/12/17 05:20:26;;;;;;;8.98;6.60;;;-0.20;99.90;;;;;;4890498;29;20047;-73
2020/12/17 05:22:52;;;;;;;11.57;6.07;;;-0.20;99.90;;;;;;4882026;29;20028;-73
2020/12/17 05:25:19;;;;;;;10.82;6.60;;;-0.20;99.90;;;;;;4888926;29;20554;-73
2020/12/17 05:27:48;;;;;;;11.00;6.20;;;-0.30;99.90;;;;;;4896962;29;20025;-73
2020/12/17 05:30:14;;;;;;;9.13;6.28;;;-0.30;99.90;;;;;;4896912;29;20028;-76
2020/12/17 05:32:42;;;;;;;8.43;5.80;;;-0.30;99.90;;;;;;4897021;29;20032;-85
2020/12/17 05:35:14;;;;;;;9.52;6.13;;;-0.20;99.90;;;;;;4897070;29;20040;-87
2020/12/17 05:37:41;;;;;;;13.52;6.65;;;-0.20;99.90;;;;;;4897343;29;20024;-80
2020/12/17 05:40:08;;;;;;;9.80;6.07;;;-0.20;99.90;;;;;;4897074;29;20039;-82
2020/12/17 05:42:34;;;;;;;11.02;5.93;;;-0.20;99.90;;;;;;4897084;29;20468;-79
2020/12/17 05:45:00;;;;;;;8.98;5.45;;;0.00;99.90;;;;;;4896880;29;20096;-82
2020/12/17 05:47:25;;;;;;;9.32;5.38;;;-0.10;99.90;;;;;;4896344;29;20025;-80
2020/12/17 05:49:51;;;;;;;8.07;5.20;;;-0.10;99.90;;;;;;4896636;29;20496;-88
2020/12/17 05:52:21;;;;;;;11.02;6.07;;;-0.20;99.90;;;;;;4896356;29;20369;-85
2020/12/17 05:54:50;;;;;;;11.35;6.10;;;-0.10;99.90;;;;;;4891554;29;20071;-78
2020/12/17 05:57:16;;;;;;;11.25;6.20;;;-0.20;99.90;;;;;;4891591;29;20024;-78
2020/12/17 05:59:53;;;;;;;10.00;5.43;;;-0.20;99.90;;;;;;4881863;29;20054;-78
2020/12/17 06:02:26;;;;;;;9.82;5.50;;;-0.20;99.90;;;;;;4892718;29;20115;-78
2020/12/17 06:05:05;;;;;;;10.27;5.63;;;-0.20;99.90;;;;;;4889389;29;20089;-78
2020/12/17 06:07:34;;;;;;;11.55;4.97;;;-0.20;99.90;;;;;;4890813;29;20028;-78
2020/12/17 06:10:07;;;;;;;8.98;5.10;;;-0.20;99.90;;;;;;4893170;29;20040;-77
2020/12/17 06:12:36;;;;;;;11.57;5.30;;;-0.30;99.90;;;;;;4889909;29;20116;-91
2020/12/17 06:15:06;;;;;;;7.93;4.72;;;-0.30;99.90;;;;;;4886744;29;20032;-82
2020/12/17 06:17:38;;;;;;;7.43;4.65;;;-0.30;99.90;;;;;;4892143;29;20032;-82
2020/12/17 06:20:06;;;;;;;6.57;5.18;;;-0.30;99.90;;;;;;4869841;29;20047;-76
2020/12/17 06:22:36;;;;;;;8.55;5.10;;;-0.30;99.90;;;;;;4869148;29;20029;-81
2020/12/17 06:25:02;;;;;;;11.77;5.50;;;-0.30;99.90;;;;;;4876467;29;20036;-81
2020/12/17 06:27:31;;;;;;;11.70;6.35;;;-0.30;99.90;;;;;;4867751;29;20034;-83
2020/12/17 06:30:08;;;;;;;8.88;5.70;;;-0.20;99.90;;;;;;4874765;29;20021;-81
2020/12/17 06:32:35;;;;;;;6.95;4.97;;;-0.10;99.90;;;;;;4874766;29;20564;-81
2020/12/17 06:35:08;;;;;;;8.48;4.95;;;-0.10;99.90;;;;;;4877612;29;20041;-81
2020/12/17 06:37:36;;;;;;;12.20;4.88;;;-0.10;99.90;;;;;;4877606;29;20044;-81
2020/12/17 06:40:03;;;;;;;8.65;4.93;;;-0.20;99.90;;;;;;4877662;29;20073;-81
2020/12/17 06:42:39;;;;;;;8.13;4.88;;;-0.20;99.90;;;;;;4877565;29;20030;-81
2020/12/17 06:45:25;;;;;;;9.27;4.78;;;-0.30;99.90;;;;;;4877916;29;20150;-81
2020/12/17 06:47:51;;;;;;;9.10;4.63;;;-0.30;99.90;;;;;;4860773;29;20026;-81
2020/12/17 06:50:38;;;;;;;7.00;4.65;;;-0.30;99.90;;;;;;4873615;29;20080;-81
2020/12/17 06:53:09;;;;;;;8.50;4.90;;;-0.30;99.90;;;;;;4877881;29;20081;-81
2020/12/17 06:55:50;;;;;;;9.50;4.63;;;-0.30;99.90;;;;;;4877169;29;20779;-81
2020/12/17 06:58:20;;;;;;;8.82;5.22;;;-0.30;99.90;;;;;;4877829;29;20028;-78
2020/12/17 07:00:51;;;;;;;7.85;5.55;;;-0.40;99.90;;;;;;4879869;29;20388;-85
2020/12/17 07:03:43;;;;;;;9.45;4.60;;;-0.30;99.90;;;;;;4872456;29;20086;-82
2020/12/17 07:06:17;;;;;;;7.10;4.15;;;-0.40;99.90;;;;;;4880049;29;20528;-81
2020/12/17 07:08:45;;;;;;;7.90;4.65;;;-0.40;99.90;;;;;;4881321;29;20489;-83
2020/12/17 07:11:41;;;;;;;10.27;4.40;;;-0.10;99.90;;;;;;4875834;29;20085;-74
2020/12/17 07:14:26;;;;;;;5.93;4.25;;;1.00;99.90;;;;;;4876696;29;20060;-88
2020/12/17 07:16:58;;;;;;;10.45;4.65;;;0.70;99.90;;;;;;4880774;29;20481;-77
2020/12/17 07:19:36;;;;;;;6.18;4.43;;;0.30;99.90;;;;;;4880276;29;20125;-74
2020/12/17 07:22:05;;;;;;;8.35;4.30;;;0.20;99.90;;;;;;4880994;29;20033;-77
2020/12/17 07:24:39;;;;;;;11.18;4.30;;;0.00;99.90;;;;;;4880683;29;20407;-80
2020/12/17 07:27:13;;;;;;;8.55;4.72;;;0.00;99.90;;;;;;4881178;29;20033;-75
2020/12/17 07:29:43;;;;;;;8.43;4.72;;;-0.10;99.90;;;;;;4875711;29;20493;-75
2020/12/17 07:32:26;;;;;;;6.72;4.55;;;-0.10;99.90;;;;;;4877735;29;20069;-75
2020/12/17 07:34:53;;;;;;;8.43;4.60;;;-0.20;99.90;;;;;;4878495;29;20047;-74
2020/12/17 07:37:37;;;;;;;6.40;4.70;;;-0.20;99.90;;;;;;4877165;29;20084;-73
2020/12/17 07:40:15;;;;;;;8.80;4.63;;;-0.30;99.90;;;;;;4878731;29;20112;-76
2020/12/17 07:42:41;;;;;;;6.10;4.13;;;-0.30;99.90;;;;;;4876991;29;20429;-79
2020/12/17 07:45:07;;;;;;;12.50;4.90;;;-0.30;99.90;;;;;;4879400;29;20062;-82
2020/12/17 07:47:33;;;;;;;9.50;5.15;;;-0.30;99.90;;;;;;4879775;29;20489;-81
2020/12/17 07:49:59;;;;;;;8.65;4.28;;;-0.30;99.90;;;;;;4879819;29;20033;-83
2020/12/17 07:52:32;;;;;;;6.65;4.28;;;-0.30;99.90;;;;;;4878192;29;20025;-82
2020/12/17 07:54:58;;;;;;;5.63;3.97;;;-0.30;99.90;;;;;;4865023;29;20128;-73
2020/12/17 07:57:25;;;;;;;11.73;5.03;;;-0.30;99.90;;;;;;4875982;29;20029;-73
2020/12/17 07:59:50;;;;;;;8.20;3.65;;;-0.20;99.90;;;;;;4872695;29;20041;-81
2020/12/17 08:02:16;;;;;;;4.70;3.55;;;0.40;99.90;;;;;;4873278;29;20029;-80
2020/12/17 08:04:53;;;;;;;6.85;4.30;;;0.50;99.90;;;;;;4876629;29;20029;-80
2020/12/17 08:07:22;;;;;;;7.05;3.88;;;0.30;99.90;;;;;;4879530;29;20021;-79
2020/12/17 08:10:01;;;;;;;6.35;4.10;;;0.10;99.90;;;;;;4878088;29;20025;-74
2020/12/17 08:12:27;;;;;;;5.88;3.65;;;0.00;99.90;;;;;;4871356;29;20033;-79
2020/12/17 08:15:05;;;;;;;6.68;4.00;;;0.00;99.90;;;;;;4871855;29;20635;-78
2020/12/17 08:17:32;;;;;;;8.20;4.60;;;-0.10;99.90;;;;;;4883953;29;20029;-82
2020/12/17 08:19:57;;;;;;;7.25;3.75;;;0.00;99.90;;;;;;4888803;29;20516;-77
2020/12/17 08:22:28;;;;;;;7.35;4.15;;;-0.10;99.90;;;;;;4881017;29;20047;-86
2020/12/17 08:25:02;;;;;;;9.68;4.22;;;-0.10;99.90;;;;;;4882247;29;20032;-81
2020/12/17 08:27:29;;;;;;;9.30;4.10;;;-0.10;99.90;;;;;;4879363;29;20029;-80
2020/12/17 08:29:54;;;;;;;8.70;3.90;;;0.00;99.90;;;;;;4879369;29;20088;-75
2020/12/17 08:32:20;;;;;;;5.90;4.00;;;0.00;99.90;;;;;;4879301;29;20473;-78
2020/12/17 08:34:52;;;;;;;4.35;3.83;;;0.00;99.90;;;;;;4866581;29;20046;-81
2020/12/17 08:37:19;;;;;;;6.78;3.45;;;0.00;99.90;;;;;;4878867;29;20057;-81
2020/12/17 08:39:45;;;;;;;6.75;3.97;;;0.00;99.90;;;;;;4878475;29;20029;-81
2020/12/17 08:42:13;;;;;;;6.60;3.42;;;0.00;99.90;;;;;;4878293;29;20163;-83
2020/12/17 08:44:42;;;;;;;5.90;3.63;;;0.00;99.90;;;;;;4878405;29;20033;-85
2020/12/17 08:47:13;;;;;;;7.93;3.92;;;-0.10;99.90;;;;;;4865680;29;20128;-81
2020/12/17 08:49:41;;;;;;;6.28;3.67;;;0.00;99.90;;;;;;4879990;29;20032;-79
2020/12/17 08:52:08;;;;;;;9.88;3.75;;;-0.10;99.90;;;;;;4875901;29;20025;-83
2020/12/17 08:54:36;;;;;;;8.02;4.30;;;-0.10;99.90;;;;;;4878586;29;20029;-86
2020/12/17 08:57:09;;;;;;;7.22;4.32;;;0.00;99.90;;;;;;4876738;29;20367;-76
2020/12/17 08:59:35;;;;;;;5.72;4.18;;;-0.10;99.90;;;;;;4877887;29;20029;-83
2020/12/17 09:02:01;;;;;;;4.80;3.53;;;0.00;99.90;;;;;;4869490;29;20064;-78
2020/12/17 09:04:28;;;;;;;8.65;4.60;;;0.00;99.90;;;;;;4866117;29;20073;-78
2020/12/17 09:06:59;;;;;;;6.00;3.80;;;0.10;99.90;;;;;;4862643;29;20151;-75
2020/12/17 09:09:27;;;;;;;5.28;3.00;;;0.20;99.90;;;;;;4878049;29;20076;-71
2020/12/17 09:11:55;;;;;;;8.18;3.25;;;0.20;99.90;;;;;;4879994;29;20511;-85
2020/12/17 09:14:31;;;;;;;4.78;3.08;;;0.30;99.90;;;;;;4865929;29;20542;-86
2020/12/17 09:17:16;;;;;;;4.22;2.55;;;0.50;99.90;;;;;;4878494;29;20045;-85
2020/12/17 09:19:46;;;;;;;7.80;2.72;;;0.50;99.90;;;;;;4868647;29;20543;-90
2020/12/17 09:22:14;;;;;;;6.22;2.53;;;0.50;99.90;;;;;;4878248;29;20029;-81
2020/12/17 09:24:41;;;;;;;3.53;2.47;;;0.80;99.90;;;;;;4878507;29;20426;-82
2020/12/17 09:27:23;;;;;;;12.02;2.70;;;1.00;99.90;;;;;;4878926;29;20116;-78
2020/12/17 09:30:10;;;;;;;6.05;2.67;;;1.20;99.90;;;;;;4874665;29;20390;-79
2020/12/17 09:32:59;;;;;;;6.07;2.22;;;2.30;99.90;;;;;;4878171;29;20115;-74
2020/12/17 09:35:33;;;;;;;4.57;2.13;;;2.40;99.90;;;;;;4878006;29;20435;-74
2020/12/17 09:38:04;;;;;;;3.25;1.92;;;1.90;99.90;;;;;;4878375;29;20052;-76
2020/12/17 09:40:31;;;;;;;5.88;1.88;;;1.60;99.90;;;;;;4878097;29;20033;-75
2020/12/17 09:43:11;;;;;;;4.85;2.03;;;1.30;99.90;;;;;;4878701;29;20040;-75
2020/12/17 09:45:43;;;;;;;6.22;1.95;;;1.10;99.90;;;;;;4878151;29;20058;-75
2020/12/17 09:48:17;;;;;;;5.53;2.78;;;1.00;99.90;;;;;;4877823;29;20479;-77
2020/12/17 09:51:00;;;;;;;5.05;2.70;;;1.00;99.90;;;;;;4877806;29;20069;-79
2020/12/17 09:53:26;;;;;;;6.57;2.30;;;1.10;99.90;;;;;;4877999;29;20407;-80
2020/12/17 09:55:52;;;;;;;5.72;2.67;;;1.10;99.90;;;;;;4878474;29;20449;-83
2020/12/17 09:58:18;;;;;;;5.68;2.03;;;1.00;99.90;;;;;;4874151;29;20478;-83
2020/12/17 10:00:44;;;;;;;7.90;3.08;;;0.90;99.90;;;;;;4869775;29;20025;-80
2020/12/17 10:03:10;;;;;;;7.35;2.35;;;1.00;99.90;;;;;;4878183;29;20048;-78
2020/12/17 10:05:37;;;;;;;6.85;2.28;;;1.40;99.90;;;;;;4878879;29;20081;-79
2020/12/17 10:08:03;;;;;;;7.60;2.35;;;1.40;99.90;;;;;;4877960;29;20057;-80
2020/12/17 10:10:29;;;;;;;6.22;2.30;;;1.30;99.90;;;;;;4877553;29;20519;-80
2020/12/17 10:12:58;;;;;;;7.05;2.20;;;1.10;99.90;;;;;;4878100;29;20029;-80
2020/12/17 10:15:27;;;;;;;2.75;1.63;;;1.00;99.90;;;;;;4872979;29;20388;-79
2020/12/17 10:17:54;;;;;;;8.02;1.92;;;0.90;99.90;;;;;;4876635;29;20073;-79
2020/12/17 10:20:21;;;;;;;8.43;2.15;;;0.80;99.90;;;;;;4877940;29;20045;-79
2020/12/17 10:22:47;;;;;;;6.07;1.80;;;0.80;99.90;;;;;;4877507;29;20021;-80
2020/12/17 10:25:14;;;;;;;4.15;2.00;;;0.70;99.90;;;;;;4877585;29;20098;-79
2020/12/17 10:27:40;;;;;;;3.75;1.80;;;0.80;99.90;;;;;;4866826;29;20038;-80
2020/12/17 10:30:07;;;;;;;6.10;2.28;;;0.70;99.90;;;;;;4875793;29;20513;-80
2020/12/17 10:32:41;;;;;;;5.72;1.85;;;0.70;99.90;;;;;;4877887;29;20100;-79
2020/12/17 10:35:07;;;;;;;3.70;1.65;;;0.70;99.90;;;;;;4867676;29;20473;-79
2020/12/17 10:37:33;;;;;;;2.20;1.38;;;0.60;99.90;;;;;;4872874;29;20034;-80
2020/12/17 10:39:58;;;;;;;5.40;1.40;;;0.60;99.90;;;;;;4876927;29;20032;-80
2020/12/17 10:42:24;;;;;;;5.10;1.67;;;0.60;99.90;;;;;;4881434;29;20029;-79
2020/12/17 10:44:51;;;;;;;7.22;1.50;;;0.50;99.90;;;;;;4881213;29;20040;-79
2020/12/17 10:47:18;;;;;;;4.28;1.58;;;0.50;99.90;;;;;;4881202;29;20049;-79
2020/12/17 10:49:45;;;;;;;4.32;1.55;;;0.50;99.90;;;;;;4881224;29;20029;-79
2020/12/17 10:52:10;;;;;;;6.25;1.70;;;0.50;99.90;;;;;;4868045;29;20029;-79
2020/12/17 10:54:37;;;;;;;4.15;1.65;;;0.50;99.90;;;;;;4881299;29;20048;-79
2020/12/17 10:57:03;;;;;;;2.03;1.45;;;0.40;99.90;;;;;;4868037;29;20062;-79
2020/12/17 10:59:29;;;;;;;2.40;1.45;;;0.40;99.90;;;;;;4881095;29;20055;-79
2020/12/17 11:01:58;;;;;;;2.92;1.35;;;0.40;99.90;;;;;;4868630;29;20108;-79
2020/12/17 11:04:24;;;;;;;8.77;1.53;;;0.40;99.90;;;;;;4868131;29;20029;-79
2020/12/17 11:06:54;;;;;;;4.57;1.48;;;0.40;99.90;;;;;;4880835;29;20041;-80
2020/12/17 11:09:19;;;;;;;3.92;1.45;;;0.40;99.90;;;;;;4880866;29;20037;-79
2020/12/17 11:11:45;;;;;;;4.22;1.30;;;0.40;99.90;;;;;;4870807;29;20029;-79
2020/12/17 11:14:11;;;;;;;5.03;1.42;;;0.40;99.90;;;;;;4877717;29;20037;-79
2020/12/17 11:16:36;;;;;;;2.90;1.40;;;0.40;99.90;;;;;;4873745;29;20038;-80
2020/12/17 11:19:03;;;;;;;5.13;1.30;;;0.30;99.90;;;;;;4880800;29;20132;-75
2020/12/17 11:21:29;;;;;;;3.53;1.35;;;0.80;99.90;;;;;;4874303;29;20033;-76
2020/12/17 11:23:54;;;;;;;1.88;1.10;;;0.80;99.90;;;;;;4862123;29;20095;-75
2020/12/17 11:26:20;;;;;;;4.85;1.17;;;0.70;99.90;;;;;;4879418;29;20029;-79
2020/12/17 11:28:46;;;;;;;1.70;1.20;;;0.60;99.90;;;;;;4874867;29;20485;-80
2020/12/17 11:31:12;;;;;;;3.63;1.33;;;0.50;99.90;;;;;;4881459;29;20041;-83
2020/12/17 11:33:38;;;;;;;4.40;1.30;;;0.40;99.90;;;;;;4880690;29;20025;-84
2020/12/17 11:36:05;;;;;;;3.80;1.42;;;0.40;99.90;;;;;;4879903;29;20512;-85
2020/12/17 11:38:31;;;;;;;3.63;1.35;;;0.40;99.90;;;;;;4879635;29;20039;-85
2020/12/17 11:40:57;;;;;;;1.65;1.00;;;0.40;99.90;;;;;;4879752;29;20123;-86
2020/12/17 11:43:22;;;;;;;4.70;1.08;;;0.30;99.90;;;;;;4880221;29;20037;-82
2020/12/17 11:45:48;;;;;;;1.63;1.00;;;0.30;99.90;;;;;;4879196;29;20429;-82
2020/12/17 11:48:14;;;;;;;8.10;1.35;;;0.30;99.90;;;;;;4870384;29;20554;-81
2020/12/17 11:50:40;;;;;;;2.88;1.58;;;0.30;99.90;;;;;;4876077;29;20073;-78
2020/12/17 11:53:05;;;;;;;2.72;0.85;;;0.30;99.90;;;;;;4875354;29;20127;-80
2020/12/17 11:55:31;;;;;;;4.93;1.38;;;0.30;99.90;;;;;;4869762;29;20049;-80
2020/12/17 11:57:57;;;;;;;1.75;1.10;;;0.20;99.90;;;;;;4869681;29;20025;-82
2020/12/17 12:00:22;;;;;;;3.85;1.33;;;0.20;99.90;;;;;;4875381;29;20033;-80
2020/12/17 12:02:51;;;;;;;5.43;1.25;;;0.20;99.90;;;;;;4880144;29;20509;-79
2020/12/17 12:05:17;;;;;;;2.35;1.27;;;0.20;99.90;;;;;;4879988;29;20056;-81
2020/12/17 12:07:44;;;;;;;3.53;1.48;;;0.20;99.90;;;;;;4879727;29;20025;-84
2020/12/17 12:10:09;;;;;;;2.58;1.13;;;0.20;99.90;;;;;;4879986;29;20029;-84
2020/12/17 12:12:35;;;;;;;2.45;1.08;;;0.20;99.90;;;;;;4875647;29;20025;-82
2020/12/17 12:15:01;;;;;;;1.52;1.15;;;0.20;99.90;;;;;;4874123;29;20509;-82
2020/12/17 12:17:27;;;;;;;1.92;1.23;;;0.20;99.90;;;;;;4875533;29;20029;-80
2020/12/17 12:19:52;;;;;;;6.30;1.20;;;0.20;99.90;;;;;;4879420;29;20053;-82
2020/12/17 12:22:18;;;;;;;3.90;1.20;;;0.20;99.90;;;;;;4879858;29;20043;-85
2020/12/17 12:24:44;;;;;;;3.10;1.20;;;0.20;99.90;;;;;;4878068;29;20021;-86
2020/12/17 12:27:10;;;;;;;3.15;1.10;;;0.20;98.90;;;;;;4873430;29;20049;-85
2020/12/17 12:29:35;;;;;;;3.15;1.15;;;0.20;99.60;;;;;;4866173;29;20026;-80
2020/12/17 12:32:01;;;;;;;5.20;1.52;;;0.20;99.40;;;;;;4868965;29;20040;-86
2020/12/17 12:34:29;;;;;;;7.18;1.20;;;0.70;99.90;;;;;;4878526;29;20041;-84
2020/12/17 12:36:55;;;;;;;2.38;1.30;;;1.20;99.90;;;;;;4877414;29;20024;-85
2020/12/17 12:39:22;;;;;;;3.75;1.20;;;0.90;97.40;;;;;;4872375;29;20049;-87
2020/12/17 12:41:50;;;;;;;4.07;1.33;;;0.70;96.50;;;;;;4879369;29;20025;-87
2020/12/17 12:44:16;;;;;;;6.03;1.30;;;0.60;97.20;;;;;;4871636;29;20029;-87
2020/12/17 12:46:42;;;;;;;7.18;1.70;;;0.50;96.40;;;;;;4880422;29;20817;-84
2020/12/17 12:49:09;;;;;;;2.70;1.52;;;0.50;96.60;;;;;;4879204;29;20036;-85
2020/12/17 12:51:35;;;;;;;3.90;1.50;;;0.40;97.30;;;;;;4879847;29;20037;-84
2020/12/17 12:54:01;;;;;;;2.85;1.30;;;0.40;96.80;;;;;;4874086;29;20663;-85
2020/12/17 12:56:27;;;;;;;3.13;1.35;;;0.40;97.00;;;;;;4878551;29;20040;-86
2020/12/17 12:58:53;;;;;;;2.63;1.45;;;0.40;96.70;;;;;;4873478;29;20056;-87
2020/12/17 13:01:19;;;;;;;7.45;1.70;;;0.40;96.30;;;;;;4879251;29;20021;-82
2020/12/17 13:03:46;;;;;;;4.18;1.58;;;0.40;96.70;;;;;;4874437;29;20022;-79
2020/12/17 13:06:21;;;;;;;3.85;1.40;;;0.40;97.70;;;;;;4878725;29;20081;-73
2020/12/17 13:08:50;;;;;;;3.42;1.80;;;0.80;99.90;;;;;;4878426;29;20028;-81
2020/12/17 13:11:21;;;;;;;3.38;1.50;;;1.30;99.90;;;;;;4878638;29;20066;-80
2020/12/17 13:13:48;;;;;;;3.05;1.42;;;1.00;96.80;;;;;;4878183;29;20029;-81
2020/12/17 13:16:25;;;;;;;6.22;1.90;;;0.80;97.40;;;;;;4883780;29;20041;-79
2020/12/17 13:18:51;;;;;;;7.18;1.70;;;0.70;97.90;;;;;;4880995;29;20041;-79
2020/12/17 13:21:20;;;;;;;4.78;1.75;;;0.60;98.70;;;;;;4879493;29;20031;-78
2020/12/17 13:23:48;;;;;;;7.82;2.00;;;0.50;99.70;;;;;;4873373;29;20013;-78
2020/12/17 13:26:15;;;;;;;4.28;1.70;;;0.50;99.90;;;;;;4878180;29;20032;-80
2020/12/17 13:28:41;;;;;;;5.72;2.13;;;0.50;99.90;;;;;;4877379;29;20057;-80
2020/12/17 13:31:06;;;;;;;6.22;1.85;;;0.40;99.90;;;;;;4866868;29;20037;-81
2020/12/17 13:33:34;;;;;;;3.65;1.95;;;0.40;99.90;;;;;;4876019;29;20354;-80
2020/12/17 13:36:00;;;;;;;3.35;1.90;;;0.40;99.90;;;;;;4873478;29;20116;-81
2020/12/17 13:38:26;;;;;;;4.28;1.65;;;0.30;99.90;;;;;;4874601;29;20077;-82
2020/12/17 13:40:51;;;;;;;3.28;1.73;;;0.40;99.90;;;;;;4878065;29;20041;-79
2020/12/17 13:43:17;;;;;;;6.43;2.10;;;0.30;99.90;;;;;;4877310;29;20423;-79
2020/12/17 13:45:43;;;;;;;5.93;2.08;;;0.30;99.90;;;;;;4877059;29;20448;-79
2020/12/17 13:48:09;;;;;;;5.15;1.98;;;0.20;99.90;;;;;;4865808;29;20052;-80
2020/12/17 13:50:36;;;;;;;3.92;2.05;;;0.20;99.90;;;;;;4876043;29;20040;-80
2020/12/17 13:53:02;;;;;;;4.25;1.90;;;0.20;99.90;;;;;;4877824;29;20032;-80
2020/12/17 13:55:28;;;;;;;4.65;1.80;;;0.20;99.90;;;;;;4875730;29;20132;-79
2020/12/17 13:57:54;;;;;;;4.82;1.58;;;0.20;99.90;;;;;;4873350;29;20457;-79
2020/12/17 14:00:19;;;;;;;6.25;1.92;;;0.20;99.90;;;;;;4872193;29;20573;-78
2020/12/17 14:02:45;;;;;;;5.65;2.03;;;0.20;99.90;;;;;;4877414;29;20029;-80
2020/12/17 14:05:13;;;;;;;5.20;1.67;;;0.10;99.90;;;;;;4877101;29;20029;-79
2020/12/17 14:07:39;;;;;;;4.57;2.70;;;0.10;99.90;;;;;;4877408;29;20025;-81
2020/12/17 14:10:04;;;;;;;3.17;1.75;;;0.10;99.90;;;;;;4877855;29;20033;-84
2020/12/17 14:12:30;;;;;;;3.85;2.03;;;0.10;99.90;;;;;;4877981;29;20396;-80
2020/12/17 14:14:56;;;;;;;3.88;1.98;;;0.10;99.90;;;;;;4876619;29;20091;-82
2020/12/17 14:17:21;;;;;;;8.43;3.10;;;0.10;99.90;;;;;;4878080;29;20120;-81
2020/12/17 14:19:47;;;;;;;5.45;2.00;;;0.10;99.90;;;;;;4877173;29;20064;-75
2020/12/17 14:22:13;;;;;;;4.97;1.90;;;0.10;99.90;;;;;;4875128;29;20045;-86
2020/12/17 14:24:39;;;;;;;5.70;2.03;;;0.10;99.90;;;;;;4871643;29;20048;-84
2020/12/17 14:27:05;;;;;;;3.95;2.40;;;0.20;99.90;;;;;;4866880;29;20478;-83
2020/12/17 14:29:31;;;;;;;4.88;1.88;;;0.10;99.90;;;;;;4874116;29;20044;-84
2020/12/17 14:32:00;;;;;;;6.63;1.83;;;0.10;99.50;;;;;;4875110;29;20025;-80
2020/12/17 14:34:26;;;;;;;5.43;2.13;;;0.10;99.50;;;;;;4874735;29;20045;-78
2020/12/17 14:36:55;;;;;;;8.55;2.15;;;0.10;99.90;;;;;;4871956;29;20385;-81
2020/12/17 14:39:22;;;;;;;7.40;2.05;;;0.10;99.30;;;;;;4874655;29;20086;-80
2020/12/17 14:41:48;;;;;;;3.97;1.98;;;0.10;99.50;;;;;;4877151;29;20032;-82
2020/12/17 14:44:13;;;;;;;3.47;1.70;;;0.10;99.50;;;;;;4874824;29;20380;-80
2020/12/17 14:46:40;;;;;;;7.03;2.47;;;0.10;99.50;;;;;;4876818;29;20037;-83
2020/12/17 14:49:05;;;;;;;5.72;1.98;;;0.10;98.90;;;;;;4875501;29;20021;-88
2020/12/17 14:51:31;;;;;;;6.28;2.13;;;0.10;98.30;;;;;;4877489;29;20120;-88
2020/12/17 14:53:57;;;;;;;6.07;1.90;;;0.10;98.80;;;;;;4877399;29;20473;-90
2020/12/17 14:56:30;;;;;;;5.03;2.20;;;0.00;98.20;;;;;;4878069;29;20036;-82
2020/12/17 14:58:56;;;;;;;5.20;2.20;;;0.00;99.10;;;;;;4877379;29;20021;-76
2020/12/17 15:01:22;;;;;;;7.00;2.00;;;0.00;99.70;;;;;;4876659;29;20041;-77
2020/12/17 15:03:48;;;;;;;5.07;2.17;;;0.00;99.30;;;;;;4871630;29;20033;-76
2020/12/17 15:06:13;;;;;;;7.03;1.92;;;0.00;99.50;;;;;;4877044;29;20120;-78
2020/12/17 15:08:39;;;;;;;4.68;2.20;;;0.00;98.90;;;;;;4871046;29;20053;-75
2020/12/17 15:11:05;;;;;;;6.10;2.67;;;0.00;99.00;;;;;;4873979;29;20048;-75
2020/12/17 15:13:32;;;;;;;7.88;2.30;;;0.00;98.40;;;;;;4868499;29;20026;-76
2020/12/17 15:15:58;;;;;;;4.15;1.70;;;0.00;98.30;;;;;;4874103;29;20477;-78
2020/12/17 15:18:24;;;;;;;9.30;2.05;;;-0.10;98.20;;;;;;4877130;29;20069;-77
2020/12/17 15:21:08;;;;;;;8.50;2.45;;;-0.20;98.30;;;;;;4878397;29;20503;-78
2020/12/17 15:23:34;;;;;;;4.00;2.08;;;-0.20;99.10;;;;;;4881017;29;20041;-78
2020/12/17 15:26:03;;;;;;;4.43;2.35;;;-0.10;98.40;;;;;;4888162;29;20043;-84
2020/12/17 15:28:29;;;;;;;6.05;2.40;;;-0.10;98.60;;;;;;4882143;29;20021;-81
2020/12/17 15:30:55;;;;;;;10.15;2.60;;;-0.10;99.20;;;;;;4881423;29;20036;-84
2020/12/17 15:33:21;;;;;;;8.27;2.38;;;-0.10;99.20;;;;;;4880875;29;20505;-91
2020/12/17 15:35:47;;;;;;;8.18;2.03;;;0.00;99.60;;;;;;4880650;29;20087;-88
2020/12/17 15:38:14;;;;;;;5.60;2.03;;;0.00;98.40;;;;;;4880932;29;20044;-82
2020/12/17 15:40:40;;;;;;;5.43;2.35;;;0.00;98.40;;;;;;4880649;29;20051;-85
2020/12/17 15:43:10;;;;;;;5.15;2.40;;;0.00;98.00;;;;;;4880521;29;20028;-83
2020/12/17 15:45:36;;;;;;;4.97;2.10;;;0.00;97.40;;;;;;4876168;29;20030;-87
2020/12/17 15:48:02;;;;;;;2.50;2.28;;;0.00;97.10;;;;;;4872759;29;20029;-83
2020/12/17 15:50:28;;;;;;;7.40;2.30;;;-0.10;96.50;;;;;;4880336;29;20076;-90
2020/12/17 15:52:54;;;;;;;5.43;2.08;;;-0.10;96.90;;;;;;4877653;29;20041;-75
2020/12/17 15:55:20;;;;;;;7.88;2.17;;;-0.10;96.90;;;;;;4880017;29;20520;-81
2020/12/17 15:57:45;;;;;;;5.75;2.35;;;-0.10;96.20;;;;;;4880299;29;20108;-79
2020/12/17 16:00:11;;;;;;;2.58;1.88;;;-0.10;95.50;;;;;;4880099;29;20124;-81
2020/12/17 16:02:37;;;;;;;4.07;1.67;;;-0.20;95.60;;;;;;4879990;29;20487;-81
2020/12/17 16:05:04;;;;;;;6.75;2.28;;;0.00;99.90;;;;;;4879973;29;20029;-81
2020/12/17 16:07:30;;;;;;;6.70;1.80;;;0.10;99.90;;;;;;4879791;29;20025;-75
2020/12/17 16:10:00;;;;;;;4.30;1.92;;;0.10;98.50;;;;;;4879912;29;20029;-75
2020/12/17 16:12:32;;;;;;;7.18;2.38;;;0.00;97.50;;;;;;4879879;29;20481;-70
2020/12/17 16:14:58;;;;;;;8.70;2.20;;;-0.10;96.60;;;;;;4876865;29;20493;-81
2020/12/17 16:17:25;;;;;;;11.90;2.92;;;-0.10;95.70;;;;;;4879593;29;20056;-85
2020/12/17 16:19:51;;;;;;;5.13;2.88;;;0.00;99.90;;;;;;4876994;29;20807;-81
2020/12/17 16:22:16;;;;;;;7.85;3.22;;;0.40;99.90;;;;;;4878399;29;20037;-86
2020/12/17 16:24:42;;;;;;;8.85;2.65;;;0.40;99.90;;;;;;4877134;29;20060;-76
2020/12/17 16:27:08;;;;;;;6.60;2.65;;;0.30;99.90;;;;;;4879758;29;20049;-76
2020/12/17 16:29:33;;;;;;;6.70;3.08;;;0.10;96.50;;;;;;4879663;29;20029;-80
2020/12/17 16:32:09;;;;;;;5.75;2.58;;;0.20;99.90;;;;;;4880156;29;20381;-86
2020/12/17 16:34:37;;;;;;;4.95;2.63;;;0.20;98.90;;;;;;4881427;29;20108;-81
2020/12/17 16:37:03;;;;;;;4.63;2.10;;;0.10;98.30;;;;;;4880354;29;20500;-89
2020/12/17 16:39:29;;;;;;;11.02;1.90;;;0.00;95.90;;;;;;4882646;29;20029;-90
2020/12/17 16:41:55;;;;;;;4.00;1.60;;;-0.20;94.70;;;;;;4880670;29;20187;-91
2020/12/17 16:44:21;;;;;;;4.40;2.35;;;-0.30;95.40;;;;;;4880362;29;20118;-87
2020/12/17 16:46:54;;;;;;;7.18;2.28;;;-0.40;95.70;;;;;;4880145;29;20116;-87
2020/12/17 16:49:21;;;;;;;2.40;1.70;;;-0.40;95.70;;;;;;4880758;29;20039;-90
2020/12/17 16:51:47;;;;;;;3.45;1.85;;;-0.40;95.10;;;;;;4879767;29;20029;-83
2020/12/17 16:54:13;;;;;;;5.38;2.13;;;-0.40;96.10;;;;;;4861058;29;20044;-88
2020/12/17 16:56:39;;;;;;;3.53;2.30;;;-0.40;96.10;;;;;;4860698;29;20106;-85
2020/12/17 16:59:04;;;;;;;5.00;1.98;;;-0.40;96.20;;;;;;4864426;29;20128;-84
2020/12/17 17:01:30;;;;;;;5.05;2.40;;;-0.40;95.30;;;;;;4869521;29;20116;-83
2020/12/17 17:03:56;;;;;;;5.32;2.38;;;-0.40;95.30;;;;;;4875697;29;20032;-82
2020/12/17 17:06:22;;;;;;;8.68;2.80;;;-0.40;96.00;;;;;;4879131;29;20477;-81
2020/12/17 17:08:47;;;;;;;3.63;2.28;;;-0.40;96.20;;;;;;4878637;29;20089;-75
2020/12/17 17:11:13;;;;;;;9.15;2.60;;;-0.40;95.70;;;;;;4878884;29;20049;-79
2020/12/17 17:13:39;;;;;;;6.03;2.70;;;-0.40;94.20;;;;;;4871122;29;20090;-79
2020/12/17 17:16:05;;;;;;;7.85;3.03;;;-0.50;93.60;;;;;;4865929;29;20548;-80
2020/12/17 17:18:31;;;;;;;7.45;2.95;;;-0.50;93.10;;;;;;4872500;29;20398;-83
2020/12/17 17:20:57;;;;;;;6.50;3.45;;;-0.60;93.20;;;;;;4874587;29;20526;-80
2020/12/17 17:23:23;;;;;;;7.20;2.67;;;-0.60;93.20;;;;;;4868330;29;20032;-80
2020/12/17 17:25:50;;;;;;;7.22;3.63;;;-0.70;93.30;;;;;;4878312;29;20044;-80
2020/12/17 17:28:16;;;;;;;6.93;3.78;;;-0.70;93.00;;;;;;4863455;29;20030;-81
2020/12/17 17:30:44;;;;;;;8.35;4.07;;;-0.70;93.20;;;;;;4867541;29;20025;-79
2020/12/17 17:33:09;;;;;;;6.93;4.18;;;-0.80;93.10;;;;;;4873533;29;20478;-81
2020/12/17 17:35:35;;;;;;;7.95;3.80;;;-0.80;93.30;;;;;;4878563;29;20045;-78
2020/12/17 17:38:01;;;;;;;7.85;3.50;;;-0.90;92.60;;;;;;4878372;29;20077;-80
2020/12/17 17:40:26;;;;;;;5.07;3.00;;;-0.90;91.80;;;;;;4870574;29;20124;-80
2020/12/17 17:42:52;;;;;;;6.88;3.28;;;-1.00;90.70;;;;;;4877038;29;20031;-85
2020/12/17 17:45:18;;;;;;;6.47;3.35;;;-1.10;90.20;;;;;;4878052;29;20037;-79
2020/12/17 17:47:44;;;;;;;7.22;3.28;;;-1.30;90.20;;;;;;4878128;29;20025;-80
2020/12/17 17:50:10;;;;;;;5.88;2.80;;;-1.40;90.40;;;;;;4878273;29;20085;-80
2020/12/17 17:52:36;;;;;;;6.13;3.17;;;-1.50;91.10;;;;;;4876895;29;20029;-79
2020/12/17 17:55:03;;;;;;;9.50;3.40;;;-1.50;91.40;;;;;;4871630;29;20044;-81
2020/12/17 17:57:31;;;;;;;8.65;3.20;;;-1.50;91.60;;;;;;4878021;29;20025;-80
2020/12/17 17:59:57;;;;;;;10.52;4.20;;;-1.50;91.90;;;;;;4877878;29;20033;-79
2020/12/17 18:02:23;;;;;;;10.88;4.10;;;-1.50;92.60;;;;;;4877836;29;20021;-81
2020/12/17 18:04:49;;;;;;;9.57;4.88;;;-1.50;93.00;;;;;;4878223;29;20104;-79
2020/12/17 18:07:14;;;;;;;8.85;4.60;;;-1.50;93.00;;;;;;4878095;29;20482;-80
2020/12/17 18:09:40;;;;;;;8.15;4.45;;;-1.50;92.20;;;;;;4878333;29;20369;-79
2020/12/17 18:12:08;;;;;;;10.73;5.20;;;-1.50;92.20;;;;;;4873662;29;20173;-82
2020/12/17 18:14:34;;;;;;;10.32;4.38;;;-1.60;92.70;;;;;;4877630;29;20037;-79